Time;durP1;ratioP1;P1;durP2;ratioP2;P2;SDS_P1;SDS_P2;PMS_P1;PMS_P2;Temp;Humidity;BMP_temperature;BMP_pressure;BME280_temperature;BME280_humidity;BME280_pressure;Samples;Min_cycle;Max_cycle;Signal;HPM_P1;HPM_P2
2021/03/02 00:01:08;;;;;;;1.52;0.20;;;6.40;99.90;;;;;;5088658;28;20180;-63
2021/03/02 00:03:37;;;;;;;1.55;0.20;;;6.30;99.90;;;;;;5090324;28;20183;-62
2021/03/02 00:06:03;;;;;;;1.52;0.20;;;6.30;99.90;;;;;;5092212;28;20223;-62
2021/03/02 00:08:29;;;;;;;1.55;0.20;;;6.30;99.90;;;;;;5084758;28;20196;-62
2021/03/02 00:10:58;;;;;;;1.60;0.20;;;6.30;99.90;;;;;;5087366;28;20237;-62
2021/03/02 00:13:24;;;;;;;1.52;0.20;;;6.30;99.90;;;;;;5090494;28;20456;-62
2021/03/02 00:15:49;;;;;;;1.57;0.30;;;6.30;99.90;;;;;;5088182;28;20694;-62
2021/03/02 00:18:18;;;;;;;1.50;0.20;;;6.40;99.90;;;;;;5095150;28;20425;-62
2021/03/02 00:20:47;;;;;;;9.00;8.40;;;6.30;99.90;;;;;;5098439;28;20176;-63
2021/03/02 00:23:26;;;;;;;1.52;0.20;;;6.30;99.90;;;;;;5106748;28;20183;-63
2021/03/02 00:25:55;;;;;;;1.77;0.70;;;6.30;99.90;;;;;;5111848;28;20205;-62
2021/03/02 00:28:24;;;;;;;1.50;0.20;;;6.20;99.90;;;;;;5108661;28;20180;-63
2021/03/02 00:30:52;;;;;;;1.52;0.20;;;6.20;99.90;;;;;;5111118;28;20195;-63
2021/03/02 00:33:20;;;;;;;1.55;0.20;;;6.20;99.90;;;;;;5104106;28;20229;-63
2021/03/02 00:35:45;;;;;;;1.55;0.20;;;6.20;99.90;;;;;;5101819;28;20179;-63
2021/03/02 00:38:11;;;;;;;1.93;0.60;;;6.10;99.90;;;;;;5094917;28;20185;-63
2021/03/02 00:40:37;;;;;;;1.53;0.20;;;6.10;99.90;;;;;;5096612;28;20185;-63
2021/03/02 00:43:03;;;;;;;1.73;0.47;;;6.10;99.90;;;;;;5096274;28;20172;-64
2021/03/02 00:45:28;;;;;;;2.23;2.00;;;6.10;99.90;;;;;;5090201;28;20191;-63
2021/03/02 00:47:55;;;;;;;1.80;0.93;;;6.10;99.90;;;;;;5097286;28;20210;-64
2021/03/02 00:50:25;;;;;;;1.55;0.20;;;6.10;99.90;;;;;;5095997;28;20214;-63
2021/03/02 00:52:51;;;;;;;1.50;0.20;;;6.10;99.90;;;;;;5071546;28;20208;-64
2021/03/02 00:55:17;;;;;;;1.70;0.50;;;6.00;99.90;;;;;;5097610;28;20184;-63
2021/03/02 00:57:43;;;;;;;1.60;0.33;;;6.00;99.90;;;;;;5095487;28;20215;-63
2021/03/02 01:00:09;;;;;;;1.50;0.20;;;5.90;99.90;;;;;;5101222;28;20191;-64
2021/03/02 01:02:35;;;;;;;1.50;0.20;;;5.90;99.90;;;;;;5106877;28;20189;-64
2021/03/02 01:05:01;;;;;;;1.50;0.20;;;5.90;99.90;;;;;;5103993;28;20192;-63
2021/03/02 01:07:26;;;;;;;1.50;0.20;;;5.90;99.90;;;;;;5104416;28;20558;-63
2021/03/02 01:09:52;;;;;;;1.57;0.20;;;5.90;99.90;;;;;;5110529;28;20202;-64
2021/03/02 01:12:18;;;;;;;1.50;0.20;;;5.90;99.90;;;;;;5112916;28;20192;-64
2021/03/02 01:14:43;;;;;;;1.50;0.20;;;5.80;99.90;;;;;;5102794;28;20536;-64
2021/03/02 01:17:09;;;;;;;1.57;0.30;;;5.80;99.90;;;;;;5082879;28;20204;-64
2021/03/02 01:19:34;;;;;;;1.50;0.20;;;5.80;99.90;;;;;;5096818;28;20188;-63
2021/03/02 01:22:00;;;;;;;1.50;0.20;;;5.80;99.90;;;;;;5098322;28;20184;-63
2021/03/02 01:24:25;;;;;;;1.60;0.20;;;5.70;99.90;;;;;;5094052;28;20187;-63
2021/03/02 01:26:51;;;;;;;1.90;0.60;;;5.70;99.90;;;;;;5093531;28;20291;-63
2021/03/02 01:29:16;;;;;;;1.53;0.30;;;5.80;99.90;;;;;;5095375;28;20206;-63
2021/03/02 01:31:42;;;;;;;1.50;0.20;;;5.80;99.90;;;;;;5098865;28;20192;-64
2021/03/02 01:34:08;;;;;;;1.50;0.20;;;5.80;99.90;;;;;;5099443;28;20216;-63
2021/03/02 01:36:33;;;;;;;1.50;0.20;;;5.80;99.90;;;;;;5104303;28;20228;-63
2021/03/02 01:38:59;;;;;;;1.53;0.20;;;5.90;99.90;;;;;;5112324;28;20198;-63
2021/03/02 01:41:24;;;;;;;1.50;0.20;;;5.90;99.90;;;;;;5113101;28;20181;-64
2021/03/02 01:43:50;;;;;;;1.53;0.20;;;6.00;99.90;;;;;;5110638;28;20188;-64
2021/03/02 01:46:15;;;;;;;1.60;0.30;;;6.10;99.90;;;;;;5109747;28;20204;-64
2021/03/02 01:48:44;;;;;;;1.50;0.20;;;6.20;99.90;;;;;;5107552;28;20185;-64
2021/03/02 01:51:10;;;;;;;1.55;0.20;;;6.20;99.90;;;;;;5104746;28;20198;-64
2021/03/02 01:53:36;;;;;;;1.50;0.20;;;6.30;99.90;;;;;;5115622;28;20231;-64
2021/03/02 01:56:03;;;;;;;1.57;0.20;;;6.30;99.90;;;;;;5112117;28;20667;-64
2021/03/02 01:58:29;;;;;;;1.50;0.20;;;6.40;99.90;;;;;;5109437;28;20184;-64
2021/03/02 02:00:57;;;;;;;1.50;0.20;;;6.40;99.90;;;;;;5112487;28;20188;-65
2021/03/02 02:03:51;;;;;;;1.60;0.30;;;6.40;99.90;;;;;;5095049;28;20198;-64
2021/03/02 02:06:25;;;;;;;1.55;0.20;;;6.50;99.90;;;;;;5109310;28;20195;-65
2021/03/02 02:09:06;;;;;;;1.50;0.20;;;6.40;99.90;;;;;;5104695;28;20184;-64
2021/03/02 02:12:12;;;;;;;1.55;0.20;;;6.50;99.90;;;;;;5083466;28;20187;-64
2021/03/02 02:14:45;;;;;;;1.50;0.20;;;6.50;99.90;;;;;;5094574;28;20550;-63
2021/03/02 02:17:44;;;;;;;1.52;0.20;;;6.50;99.90;;;;;;5097962;28;20354;-63
2021/03/02 02:20:15;;;;;;;1.55;0.20;;;6.50;99.90;;;;;;5080338;28;20748;-63
2021/03/02 02:23:00;;;;;;;1.50;0.20;;;6.50;99.90;;;;;;5090680;28;20644;-63
2021/03/02 02:25:36;;;;;;;1.60;0.50;;;6.40;99.90;;;;;;5108019;28;20192;-63
2021/03/02 02:28:02;;;;;;;1.50;0.20;;;6.40;99.90;;;;;;5109351;28;20329;-65
2021/03/02 02:30:30;;;;;;;1.50;0.20;;;6.30;99.90;;;;;;5110432;28;20210;-64
2021/03/02 02:32:56;;;;;;;1.52;0.20;;;6.30;99.90;;;;;;5110376;28;20199;-64
2021/03/02 02:35:25;;;;;;;1.52;0.20;;;6.30;99.90;;;;;;5112784;28;20742;-68
2021/03/02 02:37:51;;;;;;;1.52;0.20;;;6.20;99.90;;;;;;5110510;28;20176;-64
2021/03/02 02:40:19;;;;;;;1.50;0.20;;;6.10;99.90;;;;;;5110394;28;20221;-63
2021/03/02 02:42:48;;;;;;;1.60;0.47;;;6.10;99.90;;;;;;5109848;28;20179;-64
2021/03/02 02:45:15;;;;;;;1.55;0.20;;;6.00;99.90;;;;;;5107455;28;20188;-64
2021/03/02 02:47:41;;;;;;;1.60;0.45;;;6.00;99.90;;;;;;5112088;28;20254;-64
2021/03/02 02:50:08;;;;;;;1.50;0.20;;;5.90;99.90;;;;;;5102069;28;20264;-64
2021/03/02 02:52:35;;;;;;;1.60;0.40;;;5.80;99.90;;;;;;5109406;28;20434;-64
2021/03/02 02:55:02;;;;;;;1.90;1.48;;;5.80;99.90;;;;;;5111024;28;20194;-64
2021/03/02 02:57:30;;;;;;;1.50;0.20;;;5.70;99.90;;;;;;5090901;28;20228;-63
2021/03/02 02:59:58;;;;;;;1.52;0.20;;;5.70;99.90;;;;;;5095087;28;20229;-63
2021/03/02 03:02:27;;;;;;;1.52;0.20;;;5.70;99.90;;;;;;5089667;28;20662;-63
2021/03/02 03:05:14;;;;;;;1.70;0.47;;;5.60;99.90;;;;;;5084003;28;20870;-63
2021/03/02 03:07:46;;;;;;;1.50;0.20;;;5.50;99.90;;;;;;5082180;28;20238;-63
2021/03/02 03:10:13;;;;;;;1.55;0.20;;;5.50;99.90;;;;;;5093663;28;20267;-64
2021/03/02 03:12:43;;;;;;;1.52;0.20;;;5.40;99.90;;;;;;5092899;28;20184;-63
2021/03/02 03:15:12;;;;;;;1.52;0.20;;;5.30;99.90;;;;;;5092015;28;20187;-63
2021/03/02 03:17:42;;;;;;;1.50;0.20;;;5.30;99.90;;;;;;5089414;28;20271;-63
2021/03/02 03:20:10;;;;;;;1.55;0.20;;;5.40;99.90;;;;;;5089405;28;20181;-63
2021/03/02 03:22:37;;;;;;;1.55;0.20;;;5.40;99.90;;;;;;5102617;28;20191;-63
2021/03/02 03:25:04;;;;;;;1.50;0.20;;;5.40;99.90;;;;;;5093237;28;20671;-63
2021/03/02 03:27:33;;;;;;;1.58;0.20;;;5.40;99.90;;;;;;5074210;28;20747;-63
2021/03/02 03:30:00;;;;;;;1.60;0.20;;;5.40;99.90;;;;;;5089845;28;20266;-63
2021/03/02 03:32:27;;;;;;;1.50;0.20;;;5.50;99.90;;;;;;5087196;28;20270;-63
2021/03/02 03:34:53;;;;;;;1.50;0.20;;;5.50;99.90;;;;;;5087244;28;20211;-63
2021/03/02 03:37:19;;;;;;;1.55;0.20;;;5.60;99.90;;;;;;5089375;28;20212;-63
2021/03/02 03:39:45;;;;;;;1.50;0.20;;;5.50;99.90;;;;;;5082932;28;20287;-63
2021/03/02 03:42:10;;;;;;;1.53;0.20;;;5.50;99.90;;;;;;5088402;28;20264;-63
2021/03/02 03:44:36;;;;;;;1.53;0.20;;;5.50;99.90;;;;;;5090683;28;20180;-63
2021/03/02 03:47:03;;;;;;;4.50;4.20;;;5.50;99.90;;;;;;5087151;28;20220;-63
2021/03/02 03:49:29;;;;;;;1.55;0.20;;;5.60;99.90;;;;;;5087311;28;20188;-63
2021/03/02 03:51:56;;;;;;;1.60;0.20;;;5.60;99.90;;;;;;5088844;28;20236;-64
2021/03/02 03:54:23;;;;;;;1.52;0.20;;;5.60;99.90;;;;;;5084481;28;20267;-63
2021/03/02 03:56:51;;;;;;;1.50;0.20;;;5.60;99.90;;;;;;5086322;28;20201;-63
2021/03/02 03:59:18;;;;;;;1.50;0.20;;;5.60;99.90;;;;;;5091170;28;20191;-65
2021/03/02 04:01:45;;;;;;;1.80;0.73;;;5.50;99.90;;;;;;5089327;28;20191;-63
2021/03/02 04:04:11;;;;;;;1.55;0.20;;;5.50;99.90;;;;;;5088849;28;20172;-63
2021/03/02 04:06:37;;;;;;;1.53;0.20;;;5.50;99.90;;;;;;5086917;28;20215;-63
2021/03/02 04:09:04;;;;;;;1.58;0.30;;;5.50;99.90;;;;;;5083990;28;20450;-63
2021/03/02 04:11:30;;;;;;;1.50;0.20;;;5.50;99.90;;;;;;5092468;28;20180;-63
2021/03/02 04:13:55;;;;;;;2.00;0.97;;;5.60;99.90;;;;;;5105459;28;20210;-65
2021/03/02 04:16:21;;;;;;;1.70;0.50;;;5.50;99.90;;;;;;5105016;28;20218;-63
2021/03/02 04:18:47;;;;;;;1.50;0.20;;;5.50;99.90;;;;;;5090126;28;20225;-63
2021/03/02 04:21:13;;;;;;;1.53;0.20;;;5.50;99.90;;;;;;5089491;28;20222;-63
2021/03/02 04:23:40;;;;;;;1.60;0.30;;;5.50;99.90;;;;;;5083844;28;20264;-63
2021/03/02 04:26:05;;;;;;;1.63;0.55;;;5.60;99.90;;;;;;5090701;28;20838;-64
2021/03/02 04:28:31;;;;;;;1.53;0.20;;;5.60;99.90;;;;;;5090545;28;20267;-63
2021/03/02 04:30:56;;;;;;;1.50;0.20;;;5.60;99.90;;;;;;5085081;28;20183;-63
2021/03/02 04:33:22;;;;;;;1.57;0.20;;;5.50;99.90;;;;;;5090167;28;20550;-63
2021/03/02 04:35:47;;;;;;;1.50;0.20;;;5.50;99.90;;;;;;5087777;28;20204;-63
2021/03/02 04:38:13;;;;;;;1.50;0.20;;;5.40;99.90;;;;;;5092224;28;20199;-63
2021/03/02 04:40:38;;;;;;;1.53;0.20;;;5.40;99.90;;;;;;5092898;28;20183;-63
2021/03/02 04:43:04;;;;;;;1.50;0.20;;;5.40;99.90;;;;;;5081914;28;20176;-63
2021/03/02 04:45:29;;;;;;;1.53;0.27;;;5.40;99.90;;;;;;5091710;28;20186;-63
2021/03/02 04:47:55;;;;;;;1.70;0.63;;;5.30;99.90;;;;;;5093866;28;20227;-64
2021/03/02 04:50:20;;;;;;;1.50;0.20;;;5.30;99.90;;;;;;5090287;28;20196;-66
2021/03/02 04:52:46;;;;;;;1.50;0.20;;;5.40;99.90;;;;;;5112764;28;20175;-64
2021/03/02 04:55:12;;;;;;;1.50;0.20;;;5.40;99.90;;;;;;5110526;28;20223;-63
2021/03/02 04:57:38;;;;;;;1.50;0.20;;;5.40;99.90;;;;;;5086115;28;20303;-63
2021/03/02 05:00:06;;;;;;;1.50;0.20;;;5.40;99.90;;;;;;5089947;28;20183;-63
2021/03/02 05:02:31;;;;;;;1.52;0.20;;;5.40;99.90;;;;;;5092299;28;20267;-63
2021/03/02 05:04:57;;;;;;;1.60;0.40;;;5.30;99.90;;;;;;5088168;28;20271;-63
2021/03/02 05:07:22;;;;;;;1.50;0.20;;;5.30;99.90;;;;;;5075755;28;20702;-63
2021/03/02 05:09:48;;;;;;;1.50;0.20;;;5.30;99.90;;;;;;5074226;28;20188;-63
2021/03/02 05:12:14;;;;;;;1.53;0.20;;;5.40;99.90;;;;;;5090323;28;20252;-63
2021/03/02 05:14:39;;;;;;;1.53;0.20;;;5.40;99.90;;;;;;5089720;28;20187;-62
2021/03/02 05:17:05;;;;;;;1.50;0.20;;;5.40;99.90;;;;;;5087607;28;20296;-63
2021/03/02 05:19:31;;;;;;;1.53;0.20;;;5.40;99.90;;;;;;5091225;28;20452;-63
2021/03/02 05:21:58;;;;;;;1.50;0.20;;;5.50;99.90;;;;;;5092914;28;20192;-64
2021/03/02 05:24:23;;;;;;;1.52;0.20;;;5.40;99.90;;;;;;5087744;28;20835;-63
2021/03/02 05:26:49;;;;;;;1.50;0.20;;;5.40;99.90;;;;;;5092419;28;20203;-63
2021/03/02 05:29:14;;;;;;;1.50;0.20;;;5.50;99.90;;;;;;5088911;28;20563;-63
2021/03/02 05:31:40;;;;;;;1.50;0.20;;;5.40;99.90;;;;;;5080670;28;20723;-64
2021/03/02 05:34:05;;;;;;;2.90;0.70;;;5.40;99.90;;;;;;5088564;28;20196;-63
2021/03/02 05:36:31;;;;;;;4.10;3.70;;;5.40;99.90;;;;;;5091443;28;20243;-63
2021/03/02 05:38:56;;;;;;;1.57;0.20;;;5.30;99.90;;;;;;5085844;28;20260;-63
2021/03/02 05:41:23;;;;;;;1.97;0.90;;;5.20;99.90;;;;;;5091948;28;20181;-63
2021/03/02 05:43:49;;;;;;;1.50;0.20;;;5.20;99.90;;;;;;5081488;28;20187;-64
2021/03/02 05:46:15;;;;;;;1.55;0.20;;;5.20;99.90;;;;;;5087239;28;20219;-63
2021/03/02 05:48:42;;;;;;;1.60;0.32;;;5.20;99.90;;;;;;5066660;28;20191;-64
2021/03/02 05:51:09;;;;;;;11.88;10.07;;;5.10;99.90;;;;;;5089793;28;20192;-63
2021/03/02 05:53:38;;;;;;;2.10;0.80;;;5.10;99.90;;;;;;5088655;28;20259;-64
2021/03/02 05:56:06;;;;;;;1.60;0.60;;;5.10;99.90;;;;;;5092053;28;20558;-63
2021/03/02 05:58:32;;;;;;;1.50;0.20;;;5.00;99.90;;;;;;5088333;28;20211;-63
2021/03/02 06:00:58;;;;;;;1.80;0.63;;;5.00;99.90;;;;;;5091506;28;20203;-64
2021/03/02 06:03:24;;;;;;;1.53;0.20;;;5.10;99.90;;;;;;5093760;28;20176;-64
2021/03/02 06:05:49;;;;;;;2.37;1.53;;;5.00;99.90;;;;;;5086877;28;20211;-63
2021/03/02 06:08:15;;;;;;;1.50;0.20;;;4.90;99.90;;;;;;5093164;28;20191;-63
2021/03/02 06:10:40;;;;;;;1.50;0.20;;;4.90;99.90;;;;;;5091299;28;20233;-63
2021/03/02 06:13:06;;;;;;;2.80;0.53;;;4.90;99.90;;;;;;5086096;28;20263;-63
2021/03/02 06:15:32;;;;;;;1.55;0.20;;;4.90;99.90;;;;;;5092329;28;20190;-63
2021/03/02 06:18:08;;;;;;;1.50;0.20;;;4.90;99.90;;;;;;5095891;28;20263;-63
2021/03/02 06:20:35;;;;;;;1.50;0.20;;;4.90;99.90;;;;;;5083301;28;20192;-63
2021/03/02 06:23:24;;;;;;;6.35;2.58;;;4.90;99.90;;;;;;5092578;28;20180;-63
2021/03/02 06:25:51;;;;;;;1.60;0.30;;;4.90;99.90;;;;;;5091150;28;20294;-64
2021/03/02 06:28:43;;;;;;;1.58;0.30;;;4.90;99.90;;;;;;5086159;28;20192;-63
2021/03/02 06:31:36;;;;;;;1.60;0.40;;;4.90;99.90;;;;;;5092964;28;20180;-64
2021/03/02 06:34:17;;;;;;;2.17;1.27;;;5.00;99.90;;;;;;5083872;28;20203;-63
2021/03/02 06:36:43;;;;;;;1.58;0.20;;;5.00;99.90;;;;;;5085929;28;20242;-64
2021/03/02 06:39:22;;;;;;;1.50;0.20;;;5.00;99.90;;;;;;5087772;28;20686;-64
2021/03/02 06:41:48;;;;;;;1.80;0.57;;;5.00;99.90;;;;;;5091884;28;20183;-64
2021/03/02 06:44:14;;;;;;;1.50;0.20;;;4.90;99.90;;;;;;5084603;28;20203;-63
2021/03/02 06:46:40;;;;;;;1.50;0.20;;;4.90;99.90;;;;;;5086670;28;20695;-64
2021/03/02 06:49:06;;;;;;;1.50;0.20;;;4.90;99.90;;;;;;5089150;28;20181;-63
2021/03/02 06:51:37;;;;;;;1.50;0.20;;;4.90;99.90;;;;;;5085731;28;20191;-64
2021/03/02 06:54:16;;;;;;;1.50;0.20;;;4.90;99.90;;;;;;5086905;28;20185;-63
2021/03/02 06:56:42;;;;;;;1.55;0.20;;;5.00;99.90;;;;;;5096037;28;20637;-65
2021/03/02 06:59:17;;;;;;;1.50;0.20;;;5.00;99.90;;;;;;5110058;28;20176;-64
2021/03/02 07:01:45;;;;;;;1.58;0.20;;;5.10;99.90;;;;;;5095722;28;20176;-63
2021/03/02 07:04:14;;;;;;;1.83;1.05;;;5.10;99.90;;;;;;5090224;28;20184;-63
2021/03/02 07:06:46;;;;;;;1.55;0.20;;;5.20;99.90;;;;;;5084771;28;20208;-63
2021/03/02 07:09:14;;;;;;;1.55;0.20;;;5.20;99.90;;;;;;5084930;28;20268;-64
2021/03/02 07:11:40;;;;;;;1.83;0.40;;;5.20;99.90;;;;;;5092567;28;20655;-63
2021/03/02 07:14:10;;;;;;;1.57;0.20;;;5.20;99.90;;;;;;5086405;28;20294;-64
2021/03/02 07:16:42;;;;;;;12.90;12.30;;;5.20;99.90;;;;;;5085387;28;20476;-63
2021/03/02 07:19:08;;;;;;;1.50;0.20;;;5.20;99.90;;;;;;5086746;28;20714;-64
2021/03/02 07:21:36;;;;;;;1.50;0.20;;;5.20;99.90;;;;;;5088629;28;20191;-63
2021/03/02 07:24:09;;;;;;;1.60;0.30;;;5.30;99.90;;;;;;5091014;28;20643;-64
2021/03/02 07:26:36;;;;;;;11.10;10.23;;;5.30;99.90;;;;;;5088484;28;20203;-63
2021/03/02 07:29:03;;;;;;;1.70;0.57;;;5.40;99.90;;;;;;5086725;28;20201;-63
2021/03/02 07:31:36;;;;;;;2.17;1.27;;;5.40;99.90;;;;;;5084468;28;20192;-63
2021/03/02 07:34:02;;;;;;;2.03;1.10;;;5.50;99.90;;;;;;5089066;28;20191;-63
2021/03/02 07:36:35;;;;;;;3.45;0.57;;;5.60;99.90;;;;;;5087782;28;20219;-63
2021/03/02 07:39:29;;;;;;;1.52;0.20;;;5.60;99.90;;;;;;5087570;28;20241;-63
2021/03/02 07:41:56;;;;;;;1.63;0.40;;;5.60;99.90;;;;;;5082596;28;20188;-62
2021/03/02 07:44:22;;;;;;;1.55;0.20;;;5.70;99.90;;;;;;5087949;28;20183;-63
2021/03/02 07:46:50;;;;;;;1.50;0.20;;;5.70;99.90;;;;;;5083977;28;20309;-63
2021/03/02 07:49:22;;;;;;;1.60;0.40;;;5.80;99.90;;;;;;5084272;28;20717;-63
2021/03/02 07:52:09;;;;;;;1.58;0.20;;;5.70;99.90;;;;;;5085028;28;20184;-63
2021/03/02 07:54:35;;;;;;;1.50;0.20;;;5.80;99.90;;;;;;5072737;28;20196;-63
2021/03/02 07:57:19;;;;;;;1.57;0.30;;;5.80;99.90;;;;;;5102008;28;20287;-63
2021/03/02 08:00:13;;;;;;;1.90;0.90;;;5.90;99.90;;;;;;5098110;28;20183;-63
2021/03/02 08:02:39;;;;;;;1.50;0.20;;;5.90;99.90;;;;;;5106620;28;20195;-63
2021/03/02 08:05:26;;;;;;;3.30;2.30;;;6.00;99.90;;;;;;5109013;28;20231;-63
2021/03/02 08:08:24;;;;;;;1.67;0.38;;;6.00;99.90;;;;;;5107273;28;20561;-63
2021/03/02 08:11:00;;;;;;;1.50;0.20;;;6.10;99.90;;;;;;5103996;28;20275;-63
2021/03/02 08:13:38;;;;;;;1.60;0.20;;;6.10;99.90;;;;;;5086245;28;20729;-63
2021/03/02 08:16:06;;;;;;;1.55;0.20;;;6.20;99.90;;;;;;5090667;28;20211;-62
2021/03/02 08:18:36;;;;;;;1.55;0.20;;;6.30;99.90;;;;;;5067760;28;20318;-63
2021/03/02 08:21:10;;;;;;;1.50;0.20;;;6.30;99.90;;;;;;5084701;28;20234;-61
2021/03/02 08:23:57;;;;;;;1.52;0.20;;;6.30;99.90;;;;;;5082110;28;20187;-62
2021/03/02 08:26:31;;;;;;;1.50;0.20;;;6.40;99.90;;;;;;5100896;28;20502;-64
2021/03/02 08:29:08;;;;;;;3.40;2.42;;;6.50;99.90;;;;;;5100679;28;20258;-62
2021/03/02 08:31:35;;;;;;;3.38;2.35;;;6.50;99.90;;;;;;5101913;28;20179;-63
2021/03/02 08:34:06;;;;;;;1.90;0.73;;;6.60;99.90;;;;;;5093569;28;20508;-62
2021/03/02 08:36:32;;;;;;;1.52;0.20;;;6.60;99.90;;;;;;5086784;28;20199;-62
2021/03/02 08:38:58;;;;;;;2.83;1.65;;;6.70;99.90;;;;;;5090962;28;20177;-61
2021/03/02 08:41:28;;;;;;;1.53;0.20;;;6.70;99.90;;;;;;5104130;28;20241;-63
2021/03/02 08:43:53;;;;;;;1.57;0.20;;;6.80;99.90;;;;;;5077315;28;20184;-63
2021/03/02 08:46:27;;;;;;;1.50;0.20;;;6.80;99.90;;;;;;5092574;28;20630;-61
2021/03/02 08:48:53;;;;;;;1.80;0.95;;;6.90;99.90;;;;;;5088673;28;20191;-61
2021/03/02 08:51:21;;;;;;;1.58;0.20;;;6.90;99.90;;;;;;5085774;28;20192;-62
2021/03/02 08:53:49;;;;;;;1.55;0.20;;;7.00;99.90;;;;;;5089136;28;20180;-62
2021/03/02 08:56:24;;;;;;;1.60;0.30;;;7.10;99.90;;;;;;5070774;28;20551;-62
2021/03/02 08:58:51;;;;;;;1.50;0.20;;;7.10;99.90;;;;;;5084102;28;20441;-62
2021/03/02 09:01:23;;;;;;;1.57;0.20;;;7.10;99.90;;;;;;5091366;28;20495;-62
2021/03/02 09:03:51;;;;;;;1.57;0.20;;;7.20;99.90;;;;;;5083276;28;20474;-62
2021/03/02 09:06:20;;;;;;;2.35;0.65;;;7.20;99.90;;;;;;5088642;28;20756;-62
2021/03/02 09:08:53;;;;;;;1.60;0.20;;;7.30;99.90;;;;;;5108237;28;20187;-63
2021/03/02 09:11:25;;;;;;;1.50;0.20;;;7.40;99.90;;;;;;5096496;28;20799;-62
2021/03/02 09:13:51;;;;;;;1.57;0.20;;;7.40;99.90;;;;;;5082734;28;20986;-62
2021/03/02 09:16:25;;;;;;;26.03;6.03;;;7.50;99.90;;;;;;5089868;28;20472;-63
2021/03/02 09:19:11;;;;;;;1.57;0.20;;;7.50;99.90;;;;;;5084216;28;20418;-62
2021/03/02 09:21:48;;;;;;;1.53;0.20;;;7.50;99.90;;;;;;5085292;28;20429;-62
2021/03/02 09:24:19;;;;;;;1.70;0.47;;;7.60;99.90;;;;;;5091887;28;20582;-62
2021/03/02 09:26:50;;;;;;;3.43;3.13;;;7.60;99.90;;;;;;5092841;28;20541;-62
2021/03/02 09:29:17;;;;;;;1.77;0.93;;;7.70;99.90;;;;;;5084897;28;20943;-62
2021/03/02 09:31:43;;;;;;;1.50;0.20;;;7.80;99.90;;;;;;5091712;28;20805;-65
2021/03/02 09:34:08;;;;;;;1.60;0.20;;;7.80;99.90;;;;;;5103740;28;21004;-62
2021/03/02 09:36:34;;;;;;;1.57;0.20;;;7.80;99.90;;;;;;5102996;28;20474;-63
2021/03/02 09:39:20;;;;;;;1.57;0.20;;;7.90;99.90;;;;;;5093127;28;20206;-62
2021/03/02 09:41:47;;;;;;;1.57;0.20;;;7.90;99.90;;;;;;5074103;28;20438;-63
2021/03/02 09:44:25;;;;;;;1.60;0.50;;;7.90;99.90;;;;;;5087387;28;20434;-61
2021/03/02 09:46:53;;;;;;;1.53;0.20;;;7.90;99.90;;;;;;5085402;28;20541;-62
2021/03/02 09:49:39;;;;;;;1.53;0.20;;;8.00;99.90;;;;;;5093936;28;20540;-61
2021/03/02 09:52:07;;;;;;;1.80;0.60;;;8.00;99.90;;;;;;5083666;28;20450;-62
2021/03/02 09:54:33;;;;;;;1.57;0.20;;;8.10;99.90;;;;;;5091924;28;20539;-61
2021/03/02 09:57:01;;;;;;;1.50;0.20;;;8.20;99.90;;;;;;5091371;28;20987;-62
2021/03/02 09:59:28;;;;;;;1.50;0.20;;;8.20;99.90;;;;;;5087614;28;20245;-62
2021/03/02 10:01:54;;;;;;;1.53;0.20;;;8.30;99.90;;;;;;5094109;28;20452;-63
2021/03/02 10:04:20;;;;;;;1.50;0.20;;;8.30;99.90;;;;;;5080242;28;20491;-63
2021/03/02 10:06:46;;;;;;;1.57;0.20;;;8.40;99.90;;;;;;5082932;28;20463;-63
2021/03/02 10:09:25;;;;;;;1.50;0.20;;;8.40;99.90;;;;;;5091621;28;20529;-62
2021/03/02 10:12:26;;;;;;;1.57;0.20;;;8.40;99.90;;;;;;5090262;28;20809;-63
2021/03/02 10:14:52;;;;;;;1.50;0.20;;;8.50;99.90;;;;;;5033012;28;20454;-63
2021/03/02 10:17:32;;;;;;;1.60;0.20;;;8.50;99.90;;;;;;5073351;28;20844;-63
2021/03/02 10:20:07;;;;;;;1.50;0.20;;;8.50;99.90;;;;;;5086910;28;20204;-63
2021/03/02 10:22:33;;;;;;;1.60;0.30;;;8.60;99.90;;;;;;5089728;28;20429;-63
2021/03/02 10:24:58;;;;;;;1.53;0.20;;;8.70;99.90;;;;;;5087425;28;21043;-62
2021/03/02 10:27:24;;;;;;;1.60;0.20;;;8.70;99.90;;;;;;5092368;28;20208;-63
2021/03/02 10:29:49;;;;;;;1.50;0.20;;;8.70;99.90;;;;;;5086912;28;20591;-63
2021/03/02 10:32:16;;;;;;;2.10;0.70;;;8.70;99.90;;;;;;5092042;28;20188;-63
2021/03/02 10:34:43;;;;;;;1.50;0.20;;;8.80;99.90;;;;;;5086168;28;20201;-63
2021/03/02 10:37:10;;;;;;;1.50;0.20;;;8.80;99.90;;;;;;5083110;28;20479;-64
2021/03/02 10:39:36;;;;;;;1.53;0.20;;;8.80;99.90;;;;;;5082637;28;20462;-63
2021/03/02 10:42:04;;;;;;;2.43;1.20;;;8.90;99.90;;;;;;5092814;28;20488;-62
2021/03/02 10:44:30;;;;;;;1.50;0.20;;;9.00;99.90;;;;;;5088533;28;20950;-63
2021/03/02 10:46:55;;;;;;;1.57;0.20;;;9.10;99.90;;;;;;5089921;28;20472;-62
2021/03/02 10:49:21;;;;;;;1.50;0.20;;;9.10;99.90;;;;;;5087520;28;20184;-63
2021/03/02 10:51:48;;;;;;;2.20;1.10;;;9.20;99.90;;;;;;5084361;28;20469;-66
2021/03/02 10:54:14;;;;;;;1.50;0.20;;;9.30;99.90;;;;;;5087756;28;20241;-63
2021/03/02 10:56:39;;;;;;;1.60;0.40;;;9.30;99.90;;;;;;5089284;28;20461;-63
2021/03/02 10:59:05;;;;;;;1.57;0.20;;;9.40;99.90;;;;;;5083703;28;20189;-63
2021/03/02 11:01:32;;;;;;;1.50;0.20;;;9.40;99.90;;;;;;5090973;28;20670;-63
2021/03/02 11:03:57;;;;;;;1.50;0.20;;;9.50;99.90;;;;;;5088000;28;20430;-63
2021/03/02 11:06:28;;;;;;;1.53;0.20;;;9.60;99.90;;;;;;5083835;28;20888;-63
2021/03/02 11:08:54;;;;;;;1.50;0.20;;;9.60;99.90;;;;;;5085099;28;20221;-63
2021/03/02 11:11:20;;;;;;;1.50;0.20;;;9.70;99.90;;;;;;5086932;28;20449;-63
2021/03/02 11:13:48;;;;;;;1.50;0.20;;;9.70;99.90;;;;;;5086891;28;20461;-62
2021/03/02 11:16:14;;;;;;;1.53;0.20;;;9.80;99.90;;;;;;5082715;28;20442;-63
2021/03/02 11:18:40;;;;;;;1.50;0.20;;;9.90;99.90;;;;;;5084431;28;20447;-63
2021/03/02 11:21:07;;;;;;;1.53;0.20;;;9.80;99.90;;;;;;5085344;28;20655;-62
2021/03/02 11:23:32;;;;;;;2.30;1.33;;;9.90;99.90;;;;;;5085883;28;20271;-63
2021/03/02 11:25:58;;;;;;;1.50;0.20;;;10.00;99.90;;;;;;5083955;28;20552;-63
2021/03/02 11:28:23;;;;;;;1.50;0.20;;;10.10;99.90;;;;;;5068258;28;20195;-62
2021/03/02 11:30:48;;;;;;;1.50;0.20;;;10.10;99.90;;;;;;5084905;28;20188;-63
2021/03/02 11:33:14;;;;;;;42.03;24.17;;;10.20;99.90;;;;;;5082925;28;20701;-63
2021/03/02 11:35:44;;;;;;;1.60;0.30;;;10.20;99.90;;;;;;5082011;28;20180;-64
2021/03/02 11:38:11;;;;;;;1.60;0.60;;;10.20;99.90;;;;;;5083073;28;20521;-64
2021/03/02 11:40:36;;;;;;;1.50;0.20;;;10.30;99.90;;;;;;5086172;28;20430;-64
2021/03/02 11:43:03;;;;;;;1.57;0.20;;;10.30;99.90;;;;;;5091496;28;20450;-64
2021/03/02 11:45:31;;;;;;;1.50;0.20;;;10.40;99.90;;;;;;5085797;28;20267;-64
2021/03/02 11:47:57;;;;;;;1.60;0.20;;;10.40;99.90;;;;;;5084227;28;20446;-63
2021/03/02 11:50:23;;;;;;;1.70;0.57;;;10.40;99.90;;;;;;5087463;28;20482;-64
2021/03/02 11:52:50;;;;;;;3.50;2.50;;;10.50;99.90;;;;;;5085983;28;20446;-64
2021/03/02 11:55:17;;;;;;;2.90;2.40;;;10.50;99.90;;;;;;5081663;28;20438;-64
2021/03/02 11:57:43;;;;;;;1.57;0.20;;;10.60;99.90;;;;;;5084816;28;20464;-63
2021/03/02 12:00:12;;;;;;;1.67;0.57;;;10.70;99.90;;;;;;5078311;28;20435;-64
2021/03/02 12:02:37;;;;;;;1.50;0.20;;;10.70;99.60;;;;;;5086786;28;20438;-63
2021/03/02 12:05:04;;;;;;;1.50;0.20;;;10.80;99.90;;;;;;5082397;28;20462;-64
2021/03/02 12:07:29;;;;;;;1.50;0.20;;;10.80;99.60;;;;;;5085849;28;20686;-63
2021/03/02 12:09:55;;;;;;;1.57;0.20;;;10.90;99.30;;;;;;5083750;28;20430;-65
2021/03/02 12:12:20;;;;;;;6.07;2.73;;;11.00;99.40;;;;;;5104913;28;20191;-64
2021/03/02 12:14:46;;;;;;;1.50;0.20;;;11.10;99.00;;;;;;5096075;28;20212;-63
2021/03/02 12:17:11;;;;;;;1.50;0.20;;;11.10;98.80;;;;;;5093020;28;20208;-63
2021/03/02 12:19:38;;;;;;;1.70;0.40;;;11.10;98.90;;;;;;5069987;28;20184;-63
2021/03/02 12:22:03;;;;;;;1.53;0.20;;;11.10;98.90;;;;;;5084651;28;20176;-63
2021/03/02 12:24:29;;;;;;;1.50;0.20;;;11.20;98.60;;;;;;5091958;28;20516;-63
2021/03/02 12:26:55;;;;;;;1.53;0.20;;;11.20;98.60;;;;;;5082254;28;20204;-63
2021/03/02 12:29:21;;;;;;;1.50;0.20;;;11.20;98.50;;;;;;5090734;28;20647;-64
2021/03/02 12:31:48;;;;;;;1.53;0.20;;;11.20;98.50;;;;;;5092542;28;20572;-66
2021/03/02 12:34:13;;;;;;;1.50;0.20;;;11.30;98.40;;;;;;5090340;28;20275;-65
2021/03/02 12:36:39;;;;;;;1.50;0.20;;;11.40;98.70;;;;;;5087548;28;20494;-63
2021/03/02 12:39:06;;;;;;;1.50;0.20;;;11.40;99.00;;;;;;5094985;28;20176;-64
2021/03/02 12:41:31;;;;;;;1.50;0.20;;;11.50;99.00;;;;;;5097414;28;20429;-65
2021/03/02 12:43:57;;;;;;;1.50;0.20;;;11.50;98.70;;;;;;5100196;28;20434;-63
2021/03/02 12:46:22;;;;;;;1.50;0.20;;;11.50;98.20;;;;;;5094782;28;20215;-65
2021/03/02 12:48:48;;;;;;;1.53;0.20;;;11.50;97.80;;;;;;5088729;28;20187;-64
2021/03/02 12:51:15;;;;;;;1.50;0.20;;;11.50;97.90;;;;;;5099738;28;20176;-63
2021/03/02 12:53:40;;;;;;;1.50;0.20;;;11.50;98.00;;;;;;5104604;28;20200;-65
2021/03/02 12:56:06;;;;;;;1.50;0.20;;;11.70;97.60;;;;;;5105203;28;20461;-64
2021/03/02 12:58:31;;;;;;;1.50;0.20;;;11.80;97.30;;;;;;5101787;28;20179;-67
2021/03/02 13:00:57;;;;;;;1.70;0.70;;;11.80;97.20;;;;;;5094719;28;20206;-63
2021/03/02 13:03:23;;;;;;;1.60;0.57;;;11.90;96.50;;;;;;5091067;28;20551;-63